Time;durP1;ratioP1;P1;durP2;ratioP2;P2;SDS_P1;SDS_P2;PMS_P1;PMS_P2;Temp;Humidity;BMP_temperature;BMP_pressure;BME280_temperature;BME280_humidity;BME280_pressure;Samples;Min_cycle;Max_cycle;Signal;HPM_P1;HPM_P2
2023/01/31 00:00:43;;;;;;;;;;;8.80;99.90;;;;;;5093240;28;19912;-78
2023/01/31 00:03:08;;;;;;;;;;;8.70;99.90;;;;;;5091841;28;19908;-77
2023/01/31 00:05:34;;;;;;;;;;;8.80;99.90;;;;;;5092469;28;19947;-78
2023/01/31 00:08:00;;;;;;;;;;;8.80;99.90;;;;;;5091684;28;20322;-77
2023/01/31 00:10:26;;;;;;;;;;;8.80;99.90;;;;;;5092640;28;19916;-77
2023/01/31 00:12:51;;;;;;;;;;;8.80;99.90;;;;;;5092387;28;20438;-77
2023/01/31 00:15:18;;;;;;;;;;;8.80;99.90;;;;;;5092898;28;19912;-81
2023/01/31 00:17:43;;;;;;;;;;;8.70;99.90;;;;;;5092589;28;20352;-77
2023/01/31 00:20:10;;;;;;;;;;;8.80;99.90;;;;;;5092747;28;19908;-77
2023/01/31 00:22:35;;;;;;;;;;;8.80;99.90;;;;;;5092570;28;19961;-78
2023/01/31 00:25:01;;;;;;;;;;;8.80;99.90;;;;;;5093347;28;19912;-78
2023/01/31 00:27:27;;;;;;;;;;;8.80;99.90;;;;;;5092617;28;19955;-78
2023/01/31 00:29:52;;;;;;;;;;;8.80;99.90;;;;;;5093058;28;19934;-77
2023/01/31 00:32:18;;;;;;;;;;;8.80;99.90;;;;;;5092884;28;19978;-83
2023/01/31 00:34:43;;;;;;;;;;;8.80;99.90;;;;;;5092276;28;19927;-77
2023/01/31 00:37:09;;;;;;;;;;;8.80;99.90;;;;;;5092802;28;19913;-78
2023/01/31 00:39:34;;;;;;;;;;;8.90;99.90;;;;;;5091900;28;19998;-76
2023/01/31 00:42:00;;;;;;;;;;;8.90;99.90;;;;;;5092120;28;20057;-77
2023/01/31 00:44:25;;;;;;;;;;;8.90;99.90;;;;;;5091875;28;19908;-78
2023/01/31 00:46:51;;;;;;;;;;;8.90;99.90;;;;;;5092388;28;20417;-76
2023/01/31 00:49:17;;;;;;;;;;;8.90;99.90;;;;;;5092211;28;19914;-78
2023/01/31 00:51:43;;;;;;;;;;;8.90;99.90;;;;;;5091953;28;19914;-78
2023/01/31 00:54:09;;;;;;;;;;;8.90;99.90;;;;;;5092340;28;20044;-77
2023/01/31 00:56:36;;;;;;;;;;;9.00;99.90;;;;;;5091760;28;19983;-78
2023/01/31 00:59:07;;;;;;;;;;;9.00;99.90;;;;;;5092616;28;20002;-80
2023/01/31 01:01:33;;;;;;;;;;;8.90;99.90;;;;;;5091465;28;20380;-78
2023/01/31 01:03:59;;;;;;;;;;;9.00;99.90;;;;;;5092295;28;20285;-79
2023/01/31 01:06:25;;;;;;;;;;;9.00;99.90;;;;;;5090534;28;20049;-77
2023/01/31 01:08:50;;;;;;;;;;;9.00;99.90;;;;;;5091479;28;19989;-78
2023/01/31 01:11:18;;;;;;;;;;;9.00;99.90;;;;;;5090835;28;19920;-78
2023/01/31 01:13:43;;;;;;;;;;;9.10;99.90;;;;;;5091719;28;19916;-78
2023/01/31 01:16:11;;;;;;;;;;;9.00;99.90;;;;;;5092627;28;20379;-78
2023/01/31 01:18:37;;;;;;;;;;;9.00;99.90;;;;;;5091731;28;19908;-78
2023/01/31 01:21:09;;;;;;;;;;;9.00;99.90;;;;;;5092700;28;19919;-78
2023/01/31 01:23:35;;;;;;;;;;;9.00;99.90;;;;;;5092614;28;19908;-78
2023/01/31 01:26:01;;;;;;;;;;;9.00;99.90;;;;;;5092714;28;19909;-78
2023/01/31 01:28:26;;;;;;;;;;;9.00;99.90;;;;;;5091945;28;19908;-79
2023/01/31 01:30:52;;;;;;;;;;;9.00;99.90;;;;;;5091738;28;20004;-79
2023/01/31 01:33:17;;;;;;;;;;;8.90;99.90;;;;;;5091766;28;19931;-78
2023/01/31 01:35:43;;;;;;;;;;;8.90;99.90;;;;;;5091197;28;19998;-78
2023/01/31 01:38:09;;;;;;;;;;;8.90;99.90;;;;;;5091387;28;19930;-78
2023/01/31 01:40:35;;;;;;;;;;;8.90;99.90;;;;;;5091310;28;19919;-79
2023/01/31 01:43:01;;;;;;;;;;;8.90;99.90;;;;;;5091717;28;20315;-79
2023/01/31 01:45:27;;;;;;;;;;;8.90;99.90;;;;;;5090803;28;19908;-80
2023/01/31 01:47:54;;;;;;;;;;;8.80;99.90;;;;;;5091268;28;19908;-78
2023/01/31 01:50:40;;;;;;;;;;;8.80;99.90;;;;;;5091366;28;20014;-78
2023/01/31 01:53:11;;;;;;;;;;;8.80;99.90;;;;;;5090929;28;19971;-78
2023/01/31 01:55:40;;;;;;;;;;;8.80;99.90;;;;;;5090606;28;19923;-78
2023/01/31 01:58:14;;;;;;;;;;;8.70;99.90;;;;;;5091440;28;20273;-79
2023/01/31 02:00:40;;;;;;;;;;;8.70;99.90;;;;;;5090950;28;19908;-80
2023/01/31 02:03:06;;;;;;;;;;;8.70;99.90;;;;;;5091592;28;19961;-77
2023/01/31 02:05:43;;;;;;;;;;;8.70;99.90;;;;;;5090567;28;19997;-78
2023/01/31 02:08:09;;;;;;;;;;;8.70;99.90;;;;;;5091230;28;19969;-77
2023/01/31 02:10:39;;;;;;;;;;;8.70;99.90;;;;;;5091186;28;19916;-79
2023/01/31 02:13:05;;;;;;;;;;;8.70;99.90;;;;;;5091579;28;19908;-79
2023/01/31 02:15:32;;;;;;;;;;;8.70;99.90;;;;;;5091182;28;19923;-79
2023/01/31 02:17:57;;;;;;;;;;;8.70;99.90;;;;;;5090906;28;19912;-78
2023/01/31 02:20:29;;;;;;;;;;;8.70;99.90;;;;;;5090968;28;19934;-81
2023/01/31 02:23:14;;;;;;;;;;;8.70;99.90;;;;;;5089649;28;19908;-78
2023/01/31 02:25:42;;;;;;;;;;;8.70;99.90;;;;;;5090599;28;20148;-79
2023/01/31 02:28:11;;;;;;;;;;;8.70;99.90;;;;;;5090936;28;19935;-79
2023/01/31 02:30:36;;;;;;;;;;;8.70;99.90;;;;;;5090647;28;19912;-79
2023/01/31 02:33:11;;;;;;;;;;;8.80;99.90;;;;;;5091012;28;19908;-78
2023/01/31 02:35:37;;;;;;;;;;;8.80;99.90;;;;;;5089118;28;19999;-77
2023/01/31 02:38:08;;;;;;;;;;;8.80;99.90;;;;;;5090986;28;20440;-78
2023/01/31 02:40:39;;;;;;;;;;;8.80;99.90;;;;;;5089282;28;19912;-78
2023/01/31 02:43:18;;;;;;;;;;;8.80;99.90;;;;;;5091264;28;19907;-78
2023/01/31 02:46:05;;;;;;;;;;;8.80;99.90;;;;;;5090763;28;19989;-78
2023/01/31 02:48:33;;;;;;;;;;;8.70;99.90;;;;;;5090485;28;19913;-79
2023/01/31 02:51:11;;;;;;;;;;;8.80;99.90;;;;;;5091187;28;19909;-78
2023/01/31 02:53:44;;;;;;;;;;;8.80;99.90;;;;;;5089251;28;19955;-78
2023/01/31 02:56:18;;;;;;;;;;;8.80;99.90;;;;;;5091047;28;19999;-78
2023/01/31 02:59:02;;;;;;;;;;;8.80;99.90;;;;;;5090789;28;20318;-79
2023/01/31 03:01:31;;;;;;;;;;;8.80;99.90;;;;;;5090600;28;19911;-84
2023/01/31 03:04:04;;;;;;;;;;;8.90;99.90;;;;;;5090897;28;19948;-79
2023/01/31 03:06:32;;;;;;;;;;;8.90;99.90;;;;;;5090474;28;19912;-80
2023/01/31 03:09:01;;;;;;;;;;;8.90;99.90;;;;;;5090600;28;19920;-79
2023/01/31 03:11:37;;;;;;;;;;;8.90;99.90;;;;;;5090885;28;19912;-84
2023/01/31 03:14:23;;;;;;;;;;;8.90;99.90;;;;;;5090327;28;20338;-79
2023/01/31 03:19:44;;;;;;;;;;;8.90;99.90;;;;;;5090114;28;19931;-78
2023/01/31 03:22:15;;;;;;;;;;;9.00;99.90;;;;;;5090763;28;20312;-78
2023/01/31 03:24:42;;;;;;;;;;;9.00;99.90;;;;;;5090166;28;19984;-79
2023/01/31 03:27:08;;;;;;;;;;;9.00;99.90;;;;;;5090684;28;19909;-79
2023/01/31 03:29:35;;;;;;;;;;;9.00;99.90;;;;;;5090608;28;19927;-78
2023/01/31 03:32:06;;;;;;;;;;;9.00;99.90;;;;;;5094695;28;19914;-79
2023/01/31 03:34:31;;;;;;;;;;;9.00;99.90;;;;;;5093974;28;19969;-81
2023/01/31 03:37:00;;;;;;;;;;;9.00;99.90;;;;;;5092980;28;19982;-79
2023/01/31 03:39:38;;;;;;;;;;;9.00;99.90;;;;;;5094177;28;19916;-79
2023/01/31 03:42:08;;;;;;;;;;;9.00;99.90;;;;;;5094076;28;19912;-79
2023/01/31 03:44:54;;;;;;;;;;;9.00;99.90;;;;;;5093296;28;20349;-79
2023/01/31 03:47:34;;;;;;;;;;;9.00;99.90;;;;;;5093905;28;19908;-79
2023/01/31 03:50:03;;;;;;;;;;;9.00;99.90;;;;;;5093860;28;19908;-79
2023/01/31 03:52:31;;;;;;;;;;;9.00;99.90;;;;;;5094077;28;19911;-79
2023/01/31 03:54:59;;;;;;;;;;;9.00;99.90;;;;;;5093221;28;20272;-79
2023/01/31 03:57:31;;;;;;;;;;;9.00;99.90;;;;;;5093973;28;19913;-79
2023/01/31 03:59:58;;;;;;;;;;;9.00;99.90;;;;;;5093661;28;19908;-79
2023/01/31 04:02:25;;;;;;;;;;;9.00;99.90;;;;;;5092586;28;19981;-79
2023/01/31 04:04:57;;;;;;;;;;;9.10;99.90;;;;;;5093528;28;20388;-80
2023/01/31 04:07:23;;;;;;;;;;;9.10;99.90;;;;;;5093778;28;19943;-79
2023/01/31 04:09:49;;;;;;;;;;;9.10;99.90;;;;;;5093285;28;19920;-79
2023/01/31 04:12:15;;;;;;;;;;;9.10;99.90;;;;;;5094134;28;19931;-80
2023/01/31 04:14:41;;;;;;;;;;;9.10;99.90;;;;;;5093068;28;19965;-83
2023/01/31 04:17:06;;;;;;;;;;;9.10;99.90;;;;;;5093748;28;19965;-80
2023/01/31 04:19:32;;;;;;;;;;;9.10;99.90;;;;;;5093517;28;19908;-86
2023/01/31 04:21:58;;;;;;;;;;;9.10;99.90;;;;;;5093104;28;20379;-80
2023/01/31 04:24:23;;;;;;;;;;;9.10;99.90;;;;;;5093340;28;19918;-80
2023/01/31 04:26:49;;;;;;;;;;;9.00;99.90;;;;;;5092552;28;19916;-79
2023/01/31 04:29:15;;;;;;;;;;;9.00;99.90;;;;;;5093122;28;20011;-79
2023/01/31 04:31:40;;;;;;;;;;;8.90;99.90;;;;;;5092807;28;19908;-79
2023/01/31 04:34:06;;;;;;;;;;;8.80;99.90;;;;;;5093190;28;20002;-79
2023/01/31 04:36:32;;;;;;;;;;;8.80;99.90;;;;;;5093438;28;19919;-79
2023/01/31 04:38:59;;;;;;;;;;;8.70;99.90;;;;;;5092853;28;20373;-79
2023/01/31 04:41:25;;;;;;;;;;;8.60;99.90;;;;;;5090962;28;19985;-79
2023/01/31 04:43:51;;;;;;;;;;;8.60;99.90;;;;;;5093196;28;19993;-79
2023/01/31 04:46:16;;;;;;;;;;;8.50;99.90;;;;;;5093072;28;19916;-79
2023/01/31 04:48:42;;;;;;;;;;;8.40;99.90;;;;;;5090999;28;19908;-80
2023/01/31 04:51:08;;;;;;;;;;;8.40;99.90;;;;;;5091648;28;19946;-79
2023/01/31 04:53:33;;;;;;;;;;;8.30;99.90;;;;;;5092679;28;19935;-79
2023/01/31 04:55:59;;;;;;;;;;;8.30;99.90;;;;;;5092457;28;19913;-80
2023/01/31 04:58:24;;;;;;;;;;;8.20;99.90;;;;;;5093202;28;20393;-79
2023/01/31 05:00:52;;;;;;;;;;;8.10;99.90;;;;;;5091913;28;19908;-78
2023/01/31 05:03:18;;;;;;;;;;;8.10;99.90;;;;;;5092616;28;19908;-78
2023/01/31 05:05:43;;;;;;;;;;;8.10;99.90;;;;;;5092383;28;20362;-78
2023/01/31 05:08:09;;;;;;;;;;;8.00;99.90;;;;;;5092939;28;20011;-78
2023/01/31 05:10:35;;;;;;;;;;;8.00;99.90;;;;;;5092478;28;19948;-78
2023/01/31 05:13:00;;;;;;;;;;;8.00;99.90;;;;;;5092509;28;20314;-79
2023/01/31 05:15:26;;;;;;;;;;;7.90;99.90;;;;;;5092626;28;20428;-79
2023/01/31 05:17:52;;;;;;;;;;;7.90;99.90;;;;;;5091741;28;19912;-80
2023/01/31 05:20:18;;;;;;;;;;;7.80;99.90;;;;;;5092260;28;19908;-79
2023/01/31 05:22:47;;;;;;;;;;;7.80;99.90;;;;;;5091674;28;19923;-80
2023/01/31 05:25:13;;;;;;;;;;;7.80;99.90;;;;;;5091949;28;19908;-79
2023/01/31 05:27:39;;;;;;;;;;;7.80;99.90;;;;;;5091727;28;19908;-85
2023/01/31 05:30:05;;;;;;;;;;;7.70;99.90;;;;;;5092184;28;19908;-80
2023/01/31 05:32:31;;;;;;;;;;;7.70;99.90;;;;;;5092006;28;19959;-79
2023/01/31 05:34:56;;;;;;;;;;;7.70;99.90;;;;;;5089892;28;20682;-80
2023/01/31 05:37:22;;;;;;;;;;;7.60;99.90;;;;;;5090495;28;19967;-80
2023/01/31 05:39:47;;;;;;;;;;;7.60;99.90;;;;;;5091283;28;19961;-80
2023/01/31 05:42:13;;;;;;;;;;;7.60;99.90;;;;;;5091877;28;20011;-79
2023/01/31 05:44:38;;;;;;;;;;;7.60;99.90;;;;;;5091345;28;20295;-84
2023/01/31 05:47:04;;;;;;;;;;;7.50;99.90;;;;;;5091154;28;20253;-79
2023/01/31 05:49:32;;;;;;;;;;;7.50;99.90;;;;;;5091632;28;19987;-79
2023/01/31 05:51:58;;;;;;;;;;;7.50;99.90;;;;;;5091022;28;20173;-79
2023/01/31 05:54:23;;;;;;;;;;;7.40;99.90;;;;;;5091576;28;20006;-78
2023/01/31 05:56:49;;;;;;;;;;;7.40;99.90;;;;;;5091082;28;19947;-79
2023/01/31 05:59:14;;;;;;;;;;;7.30;99.90;;;;;;5090595;28;19916;-77
2023/01/31 06:01:40;;;;;;;;;;;7.30;99.90;;;;;;5089667;28;20290;-85
2023/01/31 06:04:06;;;;;;;;;;;7.30;99.90;;;;;;5091252;28;20269;-79
2023/01/31 06:06:31;;;;;;;;;;;7.30;99.90;;;;;;5090975;28;19916;-78
2023/01/31 06:08:57;;;;;;;;;;;7.30;99.90;;;;;;5090576;28;19927;-79
2023/01/31 06:11:24;;;;;;;;;;;7.30;99.90;;;;;;5091150;28;19908;-79
2023/01/31 06:13:49;;;;;;;;;;;7.30;99.90;;;;;;5090824;28;20273;-79
2023/01/31 06:16:15;;;;;;;;;;;7.30;99.90;;;;;;5091317;28;19912;-79
2023/01/31 06:18:41;;;;;;;;;;;7.30;99.90;;;;;;5090849;28;20364;-85
2023/01/31 06:21:06;;;;;;;;;;;7.40;99.90;;;;;;5090004;28;19915;-79
2023/01/31 06:23:33;;;;;;;;;;;7.40;99.90;;;;;;5091026;28;19935;-79
2023/01/31 06:25:58;;;;;;;;;;;7.40;99.90;;;;;;5090560;28;19969;-80
2023/01/31 06:28:24;;;;;;;;;;;7.40;99.90;;;;;;5090704;28;19908;-79
2023/01/31 06:30:50;;;;;;;;;;;7.40;99.90;;;;;;5090466;28;20076;-78
2023/01/31 06:33:15;;;;;;;;;;;7.50;99.90;;;;;;5090992;28;19916;-78
2023/01/31 06:35:41;;;;;;;;;;;7.50;99.90;;;;;;5090736;28;19920;-82
2023/01/31 06:38:07;;;;;;;;;;;7.50;99.90;;;;;;5090569;28;19912;-79
2023/01/31 06:40:34;;;;;;;;;;;7.50;99.90;;;;;;5093012;28;19908;-79
2023/01/31 06:43:00;;;;;;;;;;;7.50;99.90;;;;;;5090292;28;19908;-79
2023/01/31 06:45:25;;;;;;;;;;;7.50;99.90;;;;;;5091135;28;19908;-79
2023/01/31 06:47:51;;;;;;;;;;;7.50;99.90;;;;;;5090379;28;20006;-78
2023/01/31 06:50:17;;;;;;;;;;;7.60;99.90;;;;;;5091251;28;20368;-79
2023/01/31 06:52:42;;;;;;;;;;;7.60;99.90;;;;;;5091231;28;19912;-86
2023/01/31 06:55:08;;;;;;;;;;;7.60;99.90;;;;;;5091563;28;20209;-80
2023/01/31 06:57:34;;;;;;;;;;;7.60;99.90;;;;;;5091483;28;19912;-79
2023/01/31 06:59:59;;;;;;;;;;;7.60;99.90;;;;;;5089659;28;19914;-79
2023/01/31 07:02:25;;;;;;;;;;;7.60;99.90;;;;;;5091053;28;19908;-79
2023/01/31 07:04:51;;;;;;;;;;;7.60;99.90;;;;;;5091674;28;19908;-79
2023/01/31 07:07:17;;;;;;;;;;;7.60;99.90;;;;;;5095262;28;19908;-79
2023/01/31 07:09:42;;;;;;;;;;;7.60;99.90;;;;;;5094832;28;19964;-77
2023/01/31 07:12:08;;;;;;;;;;;7.60;99.90;;;;;;5094368;28;19961;-77
2023/01/31 07:14:33;;;;;;;;;;;7.60;99.90;;;;;;5094751;28;19916;-79
2023/01/31 07:16:59;;;;;;;;;;;7.60;99.90;;;;;;5094223;28;20306;-79
2023/01/31 07:19:24;;;;;;;;;;;7.60;99.90;;;;;;5094533;28;19912;-78
2023/01/31 07:21:50;;;;;;;;;;;7.50;99.90;;;;;;5094135;28;19908;-79
2023/01/31 07:24:15;;;;;;;;;;;7.50;99.90;;;;;;5094385;28;19931;-78
2023/01/31 07:26:41;;;;;;;;;;;7.50;99.90;;;;;;5093182;28;20007;-79
2023/01/31 07:29:07;;;;;;;;;;;7.50;99.90;;;;;;5093805;28;19904;-79
2023/01/31 07:31:33;;;;;;;;;;;7.50;99.90;;;;;;5094657;28;19916;-79
2023/01/31 07:33:58;;;;;;;;;;;7.40;99.90;;;;;;5092247;28;19919;-78
2023/01/31 07:36:25;;;;;;;;;;;7.40;99.90;;;;;;5093953;28;20318;-78
2023/01/31 07:38:55;;;;;;;;;;;7.40;99.90;;;;;;5093707;28;20007;-79
2023/01/31 07:41:20;;;;;;;;;;;7.40;99.90;;;;;;5093858;28;19909;-79
2023/01/31 07:43:46;;;;;;;;;;;7.40;99.90;;;;;;5092576;28;19909;-84
2023/01/31 07:46:12;;;;;;;;;;;7.40;99.90;;;;;;5093685;28;19926;-79
2023/01/31 07:48:37;;;;;;;;;;;7.50;99.90;;;;;;5093494;28;19908;-79
2023/01/31 07:51:03;;;;;;;;;;;7.50;99.90;;;;;;5093777;28;19919;-79
2023/01/31 07:53:30;;;;;;;;;;;7.60;99.90;;;;;;5093981;28;19912;-79
2023/01/31 07:56:04;;;;;;;;;;;7.60;99.90;;;;;;5093243;28;19935;-79
2023/01/31 07:58:29;;;;;;;;;;;7.60;99.90;;;;;;5092662;28;20270;-78
2023/01/31 08:03:40;;;;;;;;;;;7.60;99.90;;;;;;5094111;28;19972;-79
2023/01/31 08:06:07;;;;;;;;;;;7.50;99.90;;;;;;5093285;28;20338;-79
2023/01/31 08:08:33;;;;;;;;;;;7.60;99.90;;;;;;5092346;28;20395;-79
2023/01/31 08:10:59;;;;;;;;;;;7.50;99.90;;;;;;5093090;28;20348;-81
2023/01/31 08:13:25;;;;;;;;;;;7.50;99.90;;;;;;5092193;28;19908;-79
2023/01/31 08:15:52;;;;;;;;;;;7.50;99.90;;;;;;5092418;28;19916;-85
2023/01/31 08:18:17;;;;;;;;;;;7.50;99.90;;;;;;5092189;28;20295;-79
2023/01/31 08:20:43;;;;;;;;;;;7.50;99.90;;;;;;5093219;28;19923;-79
2023/01/31 08:23:08;;;;;;;;;;;7.50;99.90;;;;;;5092819;28;19908;-79
2023/01/31 08:25:35;;;;;;;;;;;7.60;99.90;;;;;;5093327;28;19912;-80
2023/01/31 08:28:00;;;;;;;;;;;7.60;99.90;;;;;;5092131;28;19918;-79
2023/01/31 08:30:26;;;;;;;;;;;7.60;99.90;;;;;;5093539;28;20007;-80
2023/01/31 08:32:52;;;;;;;;;;;7.70;99.90;;;;;;5092925;28;19958;-84
2023/01/31 08:35:17;;;;;;;;;;;7.70;99.90;;;;;;5093078;28;19912;-80
2023/01/31 08:37:43;;;;;;;;;;;7.70;99.90;;;;;;5092815;28;19942;-78
2023/01/31 08:40:10;;;;;;;;;;;7.60;99.90;;;;;;5091757;28;19908;-80
2023/01/31 08:42:36;;;;;;;;;;;7.60;99.90;;;;;;5092554;28;20349;-78
2023/01/31 08:45:01;;;;;;;;;;;7.60;99.90;;;;;;5093073;28;19943;-79
2023/01/31 08:47:27;;;;;;;;;;;7.50;99.90;;;;;;5091714;28;20269;-79
2023/01/31 08:49:52;;;;;;;;;;;7.50;99.90;;;;;;5092728;28;20266;-85
2023/01/31 08:52:18;;;;;;;;;;;7.50;99.90;;;;;;5091353;28;19916;-79
2023/01/31 08:54:44;;;;;;;;;;;7.50;99.90;;;;;;5092581;28;19927;-79
2023/01/31 08:57:09;;;;;;;;;;;7.50;99.90;;;;;;5092008;28;20305;-79
2023/01/31 08:59:35;;;;;;;;;;;7.50;99.90;;;;;;5092714;28;19954;-79
2023/01/31 09:02:00;;;;;;;;;;;7.50;99.90;;;;;;5091837;28;19930;-79
2023/01/31 09:04:26;;;;;;;;;;;7.50;99.90;;;;;;5092299;28;19908;-80
2023/01/31 09:06:53;;;;;;;;;;;7.50;99.90;;;;;;5092098;28;20023;-80
2023/01/31 09:09:19;;;;;;;;;;;7.50;99.90;;;;;;5092324;28;19989;-78
2023/01/31 09:11:44;;;;;;;;;;;7.50;99.90;;;;;;5092452;28;20365;-79
2023/01/31 09:14:10;;;;;;;;;;;7.50;99.90;;;;;;5091866;28;20353;-79
2023/01/31 09:16:36;;;;;;;;;;;7.50;99.90;;;;;;5092123;28;19935;-81
2023/01/31 09:19:02;;;;;;;;;;;7.60;99.90;;;;;;5091880;28;19908;-80
2023/01/31 09:21:28;;;;;;;;;;;7.60;99.90;;;;;;5090840;28;20279;-79
2023/01/31 09:23:58;;;;;;;;;;;7.60;99.90;;;;;;5092002;28;19974;-87
2023/01/31 09:26:24;;;;;;;;;;;7.60;99.90;;;;;;5091979;28;20306;-79
2023/01/31 09:28:49;;;;;;;;;;;7.70;99.90;;;;;;5091418;28;19916;-79
2023/01/31 09:31:17;;;;;;;;;;;7.80;99.90;;;;;;5091205;28;19995;-79
2023/01/31 09:33:43;;;;;;;;;;;7.90;99.90;;;;;;5091830;28;19912;-79
2023/01/31 09:36:10;;;;;;;;;;;7.90;99.90;;;;;;5091115;28;20015;-78
2023/01/31 09:38:35;;;;;;;;;;;8.00;99.90;;;;;;5091626;28;19965;-78
2023/01/31 09:41:06;;;;;;;;;;;8.00;99.90;;;;;;5090914;28;20268;-79
2023/01/31 09:43:44;;;;;;;;;;;8.10;99.90;;;;;;5091424;28;19953;-79
2023/01/31 09:46:15;;;;;;;;;;;8.10;99.90;;;;;;5091326;28;19943;-78
2023/01/31 09:48:43;;;;;;;;;;;8.10;99.90;;;;;;5091495;28;19977;-78
2023/01/31 09:51:09;;;;;;;;;;;8.00;99.90;;;;;;5090219;28;19908;-80
2023/01/31 09:53:36;;;;;;;;;;;8.00;99.90;;;;;;5090922;28;19953;-78
2023/01/31 09:56:20;;;;;;;;;;;8.00;99.90;;;;;;5090590;28;20303;-78
2023/01/31 09:59:02;;;;;;;;;;;8.00;99.90;;;;;;5090779;28;20375;-79
2023/01/31 10:01:27;;;;;;;;;;;8.00;99.90;;;;;;5089566;28;20744;-82
2023/01/31 10:04:05;;;;;;;;;;;8.00;99.90;;;;;;5091283;28;19912;-80
2023/01/31 10:06:49;;;;;;;;;;;8.00;99.90;;;;;;5090898;28;19916;-78
2023/01/31 10:09:35;;;;;;;;;;;8.00;99.90;;;;;;5089966;28;20349;-79
2023/01/31 10:12:09;;;;;;;;;;;8.00;99.90;;;;;;5090138;28;19923;-79
2023/01/31 10:14:38;;;;;;;;;;;8.00;99.90;;;;;;5090693;28;19912;-79
2023/01/31 10:17:07;;;;;;;;;;;8.00;99.90;;;;;;5090228;28;19923;-78
2023/01/31 10:19:45;;;;;;;;;;;8.00;99.90;;;;;;5090967;28;19908;-78
2023/01/31 10:22:14;;;;;;;;;;;8.10;99.90;;;;;;5090158;28;19935;-80
2023/01/31 10:24:43;;;;;;;;;;;8.10;99.90;;;;;;5090581;28;19950;-81
2023/01/31 10:27:31;;;;;;;;;;;8.10;99.90;;;;;;5090262;28;20041;-81
2023/01/31 10:29:58;;;;;;;;;;;8.10;99.90;;;;;;5090981;28;19908;-86
2023/01/31 10:32:26;;;;;;;;;;;8.10;99.90;;;;;;5090988;28;20357;-82
2023/01/31 10:34:52;;;;;;;;;;;8.10;99.90;;;;;;5091222;28;20046;-81
2023/01/31 10:37:26;;;;;;;;;;;8.20;99.90;;;;;;5090185;28;20369;-81
2023/01/31 10:39:54;;;;;;;;;;;8.20;99.90;;;;;;5088722;28;20041;-83
2023/01/31 10:42:31;;;;;;;;;;;8.20;99.90;;;;;;5089961;28;19969;-80
2023/01/31 10:45:03;;;;;;;;;;;8.20;99.90;;;;;;5091092;28;20022;-81
2023/01/31 10:47:33;;;;;;;;;;;8.30;99.90;;;;;;5091027;28;20329;-80
2023/01/31 10:49:58;;;;;;;;;;;8.30;99.90;;;;;;5090740;28;19908;-87
2023/01/31 10:52:27;;;;;;;;;;;8.30;99.90;;;;;;5090355;28;20013;-80
2023/01/31 10:54:55;;;;;;;;;;;8.30;99.90;;;;;;5090732;28;19912;-82
2023/01/31 10:57:21;;;;;;;;;;;8.30;99.90;;;;;;5090232;28;20377;-80
2023/01/31 10:59:48;;;;;;;;;;;8.30;99.90;;;;;;5091251;28;19919;-81
2023/01/31 11:02:17;;;;;;;;;;;8.30;99.90;;;;;;5090331;28;20500;-80
2023/01/31 11:04:42;;;;;;;;;;;8.30;99.90;;;;;;5091022;28;19915;-80
2023/01/31 11:07:08;;;;;;;;;;;8.20;99.90;;;;;;5090301;28;20269;-81
2023/01/31 11:09:36;;;;;;;;;;;8.30;99.90;;;;;;5091837;28;19924;-81
2023/01/31 11:12:03;;;;;;;;;;;8.30;99.90;;;;;;5090832;28;20356;-88
2023/01/31 11:14:30;;;;;;;;;;;8.30;99.90;;;;;;5091176;28;20057;-81
2023/01/31 11:16:57;;;;;;;;;;;8.30;99.90;;;;;;5090970;28;19912;-79
2023/01/31 11:19:26;;;;;;;;;;;8.30;99.90;;;;;;5090573;28;19914;-80
2023/01/31 11:21:52;;;;;;;;;;;8.40;99.90;;;;;;5090839;28;19944;-80
2023/01/31 11:24:22;;;;;;;;;;;8.40;99.90;;;;;;5090106;28;19909;-81
2023/01/31 11:26:51;;;;;;;;;;;8.40;99.90;;;;;;5090740;28;19908;-81
2023/01/31 11:29:22;;;;;;;;;;;8.40;99.90;;;;;;5090074;28;19915;-80
2023/01/31 11:31:48;;;;;;;;;;;8.50;99.90;;;;;;5090624;28;20002;-81
2023/01/31 11:34:19;;;;;;;;;;;8.50;99.90;;;;;;5089882;28;19956;-81
2023/01/31 11:36:45;;;;;;;;;;;8.50;99.90;;;;;;5090541;28;19923;-82
2023/01/31 11:39:28;;;;;;;;;;;8.50;99.90;;;;;;5090090;28;20305;-81
2023/01/31 11:41:54;;;;;;;;;;;8.60;99.90;;;;;;5090577;28;19936;-80
2023/01/31 11:44:21;;;;;;;;;;;8.80;99.90;;;;;;5089997;28;19931;-81
2023/01/31 11:46:49;;;;;;;;;;;9.00;99.90;;;;;;5090497;28;19912;-80
2023/01/31 11:49:33;;;;;;;;;;;9.10;99.90;;;;;;5090038;28;19909;-80
2023/01/31 11:52:01;;;;;;;;;;;9.10;99.90;;;;;;5092043;28;20008;-81
2023/01/31 11:54:29;;;;;;;;;;;9.10;99.90;;;;;;5093601;28;20123;-80
2023/01/31 11:56:55;;;;;;;;;;;9.00;99.90;;;;;;5093871;28;19912;-81
2023/01/31 11:59:23;;;;;;;;;;;9.00;99.90;;;;;;5092302;28;19958;-81
2023/01/31 12:01:52;;;;;;;;;;;9.00;99.90;;;;;;5093896;28;19908;-80
2023/01/31 12:04:23;;;;;;;;;;;9.00;99.90;;;;;;5092039;28;19962;-81
2023/01/31 12:06:56;;;;;;;;;;;9.00;99.90;;;;;;5093551;28;19915;-81
2023/01/31 12:09:23;;;;;;;;;;;9.10;99.90;;;;;;5093314;28;20373;-81
2023/01/31 12:11:59;;;;;;;;;;;9.20;99.90;;;;;;5092504;28;20006;-81
2023/01/31 12:14:35;;;;;;;;;;;9.10;99.90;;;;;;5093658;28;19912;-82
2023/01/31 12:17:00;;;;;;;;;;;9.00;99.90;;;;;;5094394;28;19923;-81
2023/01/31 12:19:46;;;;;;;;;;;8.90;99.90;;;;;;5093742;28;19908;-81
2023/01/31 12:22:17;;;;;;;;;;;8.90;99.90;;;;;;5081015;28;19915;-80
2023/01/31 12:24:53;;;;;;;;;;;8.90;99.90;;;;;;5092469;28;20312;-81
2023/01/31 12:27:26;;;;;;;;;;;8.90;99.90;;;;;;5093459;28;19908;-80
2023/01/31 12:30:16;;;;;;;;;;;8.90;99.90;;;;;;5093731;28;19909;-80
2023/01/31 12:32:47;;;;;;;;;;;8.80;99.90;;;;;;5093161;28;19919;-80
2023/01/31 12:35:13;;;;;;;;;;;8.90;99.90;;;;;;5093166;28;19912;-81
2023/01/31 12:37:57;;;;;;;;;;;8.90;99.90;;;;;;5092587;28;20356;-80
2023/01/31 12:40:38;;;;;;;;;;;8.90;99.90;;;;;;5092665;28;19908;-81
2023/01/31 12:43:17;;;;;;;;;;;8.90;99.90;;;;;;5092933;28;19912;-79
2023/01/31 12:45:58;;;;;;;;;;;8.90;99.90;;;;;;5092005;28;20391;-79
2023/01/31 12:48:26;;;;;;;;;;;8.90;99.90;;;;;;5092573;28;19912;-80
2023/01/31 12:51:03;;;;;;;;;;;8.90;99.90;;;;;;5093246;28;20074;-79
2023/01/31 12:53:37;;;;;;;;;;;8.90;99.90;;;;;;5093065;28;19904;-79
2023/01/31 12:56:18;;;;;;;;;;;8.90;99.90;;;;;;5093582;28;19970;-80
2023/01/31 12:58:48;;;;;;;;;;;9.00;99.90;;;;;;5093811;28;19924;-81
2023/01/31 13:01:32;;;;;;;;;;;9.00;99.90;;;;;;5091600;28;19912;-79
2023/01/31 13:03:58;;;;;;;;;;;9.00;99.90;;;;;;5092321;28;19924;-80
2023/01/31 13:06:38;;;;;;;;;;;9.00;99.90;;;;;;5092541;28;19932;-80
2023/01/31 13:09:10;;;;;;;;;;;9.10;99.90;;;;;;5091485;28;19928;-75
2023/01/31 13:11:41;;;;;;;;;;;9.10;99.90;;;;;;5092735;28;19915;-76
2023/01/31 13:14:14;;;;;;;;;;;9.10;99.90;;;;;;5092458;28;19920;-76
2023/01/31 13:16:43;;;;;;;;;;;9.10;99.90;;;;;;5090208;28;21670;-76
2023/01/31 13:19:16;;;;;;;;;;;9.10;99.90;;;;;;5092375;28;20028;-86
2023/01/31 13:21:44;;;;;;;;;;;9.20;99.90;;;;;;5092849;28;19935;-77
2023/01/31 13:24:16;;;;;;;;;;;9.10;99.90;;;;;;5092048;28;19908;-85
2023/01/31 13:26:44;;;;;;;;;;;9.20;99.90;;;;;;5094002;28;19908;-78
2023/01/31 13:29:36;;;;;;;;;;;9.30;99.90;;;;;;5093769;28;20242;-86
2023/01/31 13:32:04;;;;;;;;;;;9.30;99.90;;;;;;5091847;28;19908;-78
2023/01/31 13:34:33;;;;;;;;;;;9.30;99.90;;;;;;5093402;28;20735;-79
2023/01/31 13:37:00;;;;;;;;;;;9.30;99.90;;;;;;5092637;28;19957;-78
2023/01/31 13:39:29;;;;;;;;;;;9.20;99.90;;;;;;5092218;28;19908;-78
2023/01/31 13:41:54;;;;;;;;;;;9.20;99.90;;;;;;5092790;28;20006;-78
2023/01/31 13:44:20;;;;;;;;;;;9.20;99.90;;;;;;5092584;28;20391;-78
2023/01/31 13:46:48;;;;;;;;;;;9.10;99.90;;;;;;5091677;28;19909;-78
2023/01/31 13:49:19;;;;;;;;;;;9.10;99.90;;;;;;5092622;28;19916;-80
2023/01/31 13:51:48;;;;;;;;;;;9.00;99.90;;;;;;5093113;28;20011;-78
2023/01/31 13:54:22;;;;;;;;;;;9.00;99.90;;;;;;5092713;28;20023;-87
2023/01/31 13:56:51;;;;;;;;;;;8.90;99.90;;;;;;5093240;28;19961;-78
2023/01/31 13:59:20;;;;;;;;;;;8.80;99.90;;;;;;5092188;28;20269;-79
2023/01/31 14:01:47;;;;;;;;;;;8.80;99.90;;;;;;5092985;28;20334;-77
2023/01/31 14:04:13;;;;;;;;;;;8.80;99.90;;;;;;5092326;28;19908;-86
2023/01/31 14:06:51;;;;;;;;;;;8.80;99.90;;;;;;5092587;28;20011;-77
2023/01/31 14:09:32;;;;;;;;;;;8.70;99.90;;;;;;5091314;28;19927;-78
2023/01/31 14:11:59;;;;;;;;;;;8.80;99.90;;;;;;5091186;28;19916;-77
2023/01/31 14:14:40;;;;;;;;;;;8.80;99.90;;;;;;5089661;28;19935;-78
2023/01/31 14:17:24;;;;;;;;;;;8.80;99.90;;;;;;5093012;28;19913;-76
2023/01/31 14:19:50;;;;;;;;;;;8.70;99.90;;;;;;5092162;28;20384;-77
2023/01/31 14:22:17;;;;;;;;;;;8.60;99.90;;;;;;5091748;28;19908;-82
2023/01/31 14:24:45;;;;;;;;;;;8.60;99.90;;;;;;5092269;28;20383;-78
2023/01/31 14:27:29;;;;;;;;;;;8.60;99.90;;;;;;5092317;28;20296;-78
2023/01/31 14:30:07;;;;;;;;;;;8.70;99.90;;;;;;5092324;28;20396;-77
2023/01/31 14:32:44;;;;;;;;;;;8.70;99.90;;;;;;5091581;28;19934;-78
2023/01/31 14:35:12;;;;;;;;;;;8.70;99.90;;;;;;5092110;28;20036;-76
2023/01/31 14:37:56;;;;;;;;;;;8.70;99.90;;;;;;5090537;28;20335;-78
2023/01/31 14:40:22;;;;;;;;;;;8.60;99.90;;;;;;5091241;28;19994;-78
2023/01/31 14:42:48;;;;;;;;;;;8.60;99.90;;;;;;5092196;28;19943;-78
2023/01/31 14:45:22;;;;;;;;;;;8.60;99.90;;;;;;5092060;28;19919;-77